Other Surface Observations
Issued by NWS Great Falls, MT

Home | Current Version | Previous Version | Text Only | Print | Product List | Glossary On
Versions: 1 2 3 4 5 6 7 8 9 10 11 12 13 14 15 16 17 18 19 20 21 22 23 24 25 26 27 28 29 30 31 32 33 34 35 36 37 38 39 40 41 42 43 44 45 46 47 48 49 50
241
SXUS55 KTFX 181559
OSOTFX
AREA AWOS OBSERVATIONS
NATIONAL WEATHER SERVICE GREAT FALLS MT
0859 AM MST THU JAN 18 2018

METAR KPWD 181600Z AUTO 00000KT 10SM M06/M09 A2971 RMK PLENTYWOOD
METAR KPO1 181600Z AUTO 00000KT 10SM M06/M08 A2974 RMK POPLAR
METAR K1S3 181600Z AUTO 04003KT M02/M06 A2980 RMK FORSYTH
METAR KS71 181600Z AUTO 09005KT 10SM M06/M09 A2969 RMK CHINOOK
METAR K38S 181600Z AUTO 14006KT 10SM 05/M02 A2984 RMK DEER LODGE
METAR K3U3 181600Z AUTO 14014G19KT 10SM 06/M03 A2986 RMK ANACONDA
METAR K6S5 181545Z AUTO 16013G19KT 10SM 08/M01 A2980 RMK HAMILTON
METAR K88M 181600Z AUTO 10SM 05/02 A2973 RMK EUREKA



USA.gov is the U.S. government's official web portal to all federal, state and local government web resources and services.